sensor_id;sensor_type;location;lat;lon;timestamp;temperature;humidity
55711;DHT22;41612;51.994;5.880;2023-04-08T02:30:17;6.50;85.20
55711;DHT22;41612;51.994;5.880;2023-04-08T02:32:44;6.40;85.20
55711;DHT22;41612;51.994;5.880;2023-04-08T02:35:12;6.40;85.20
55711;DHT22;41612;51.994;5.880;2023-04-08T02:37:39;6.40;85.30
55711;DHT22;41612;51.994;5.880;2023-04-08T02:40:25;6.30;85.30
55711;DHT22;41612;51.994;5.880;2023-04-08T02:42:51;6.30;85.30
55711;DHT22;41612;51.994;5.880;2023-04-08T02:45:17;6.20;85.40
55711;DHT22;41612;51.994;5.880;2023-04-08T02:47:43;6.20;85.60
55711;DHT22;41612;51.994;5.880;2023-04-08T02:50:09;6.20;85.60
55711;DHT22;41612;51.994;5.880;2023-04-08T02:52:35;6.20;85.60
55711;DHT22;41612;51.994;5.880;2023-04-08T02:55:00;6.20;85.60
55711;DHT22;41612;51.994;5.880;2023-04-08T02:57:26;6.10;85.60
55711;DHT22;41612;51.994;5.880;2023-04-08T02:59:52;6.10;85.70
55711;DHT22;41612;51.994;5.880;2023-04-08T03:02:18;6.00;85.80
55711;DHT22;41612;51.994;5.880;2023-04-08T03:04:43;6.00;85.90
55711;DHT22;41612;51.994;5.880;2023-04-08T03:07:09;6.00;85.90
55711;DHT22;41612;51.994;5.880;2023-04-08T03:09:35;5.90;86.00
55711;DHT22;41612;51.994;5.880;2023-04-08T03:12:01;5.90;86.00
55711;DHT22;41612;51.994;5.880;2023-04-08T03:14:26;5.90;86.10
55711;DHT22;41612;51.994;5.880;2023-04-08T03:16:52;5.80;86.10
55711;DHT22;41612;51.994;5.880;2023-04-08T03:19:18;5.80;86.20
55711;DHT22;41612;51.994;5.880;2023-04-08T03:21:43;5.80;86.20
55711;DHT22;41612;51.994;5.880;2023-04-08T03:24:09;5.70;86.20
55711;DHT22;41612;51.994;5.880;2023-04-08T03:26:35;5.70;86.20
55711;DHT22;41612;51.994;5.880;2023-04-08T03:29:01;5.70;86.30
55711;DHT22;41612;51.994;5.880;2023-04-08T03:31:27;5.70;86.30
55711;DHT22;41612;51.994;5.880;2023-04-08T03:33:52;5.60;86.40
55711;DHT22;41612;51.994;5.880;2023-04-08T03:36:18;5.60;86.40
55711;DHT22;41612;51.994;5.880;2023-04-08T03:38:44;5.60;86.40
55711;DHT22;41612;51.994;5.880;2023-04-08T03:41:09;5.50;86.50
55711;DHT22;41612;51.994;5.880;2023-04-08T03:43:35;5.50;86.50
55711;DHT22;41612;51.994;5.880;2023-04-08T03:46:01;5.50;86.50
55711;DHT22;41612;51.994;5.880;2023-04-08T03:48:27;5.50;86.60
55711;DHT22;41612;51.994;5.880;2023-04-08T03:50:53;5.50;86.40
55711;DHT22;41612;51.994;5.880;2023-04-08T03:53:18;5.50;86.40
55711;DHT22;41612;51.994;5.880;2023-04-08T03:55:44;5.60;86.40
55711;DHT22;41612;51.994;5.880;2023-04-08T03:58:10;5.50;86.40
55711;DHT22;41612;51.994;5.880;2023-04-08T04:00:36;5.50;86.40
55711;DHT22;41612;51.994;5.880;2023-04-08T04:03:01;5.50;86.40
55711;DHT22;41612;51.994;5.880;2023-04-08T04:05:28;5.50;86.30
55711;DHT22;41612;51.994;5.880;2023-04-08T04:07:53;5.50;86.30
55711;DHT22;41612;51.994;5.880;2023-04-08T04:10:19;5.50;86.40
55711;DHT22;41612;51.994;5.880;2023-04-08T04:12:45;5.50;86.40
55711;DHT22;41612;51.994;5.880;2023-04-08T04:15:12;5.50;86.40
55711;DHT22;41612;51.994;5.880;2023-04-08T04:17:37;5.40;86.40
55711;DHT22;41612;51.994;5.880;2023-04-08T04:20:06;5.40;86.40
55711;DHT22;41612;51.994;5.880;2023-04-08T04:22:32;5.30;86.40
55711;DHT22;41612;51.994;5.880;2023-04-08T04:24:58;5.30;86.40
55711;DHT22;41612;51.994;5.880;2023-04-08T04:27:23;5.30;86.40
55711;DHT22;41612;51.994;5.880;2023-04-08T04:29:49;5.30;86.40
55711;DHT22;41612;51.994;5.880;2023-04-08T04:32:15;5.30;86.30
55711;DHT22;41612;51.994;5.880;2023-04-08T04:34:41;5.30;86.40
55711;DHT22;41612;51.994;5.880;2023-04-08T04:37:08;5.30;86.40
55711;DHT22;41612;51.994;5.880;2023-04-08T04:39:34;5.20;86.40
55711;DHT22;41612;51.994;5.880;2023-04-08T04:42:00;5.20;86.50
55711;DHT22;41612;51.994;5.880;2023-04-08T04:44:28;5.20;86.50
55711;DHT22;41612;51.994;5.880;2023-04-08T04:46:54;5.20;86.60
55711;DHT22;41612;51.994;5.880;2023-04-08T04:49:20;5.20;86.50
55711;DHT22;41612;51.994;5.880;2023-04-08T04:51:46;5.20;86.50
55711;DHT22;41612;51.994;5.880;2023-04-08T04:54:11;5.20;86.50
55711;DHT22;41612;51.994;5.880;2023-04-08T04:56:37;5.20;86.50
55711;DHT22;41612;51.994;5.880;2023-04-08T04:59:02;5.20;86.40
55711;DHT22;41612;51.994;5.880;2023-04-08T05:01:29;5.20;86.40
55711;DHT22;41612;51.994;5.880;2023-04-08T05:03:55;5.10;86.30
55711;DHT22;41612;51.994;5.880;2023-04-08T05:06:22;5.10;86.30
55711;DHT22;41612;51.994;5.880;2023-04-08T05:08:48;5.10;86.30
55711;DHT22;41612;51.994;5.880;2023-04-08T05:11:16;5.10;86.30
55711;DHT22;41612;51.994;5.880;2023-04-08T05:13:43;5.10;86.20
55711;DHT22;41612;51.994;5.880;2023-04-08T05:16:09;5.10;86.20
55711;DHT22;41612;51.994;5.880;2023-04-08T05:18:35;5.10;86.20
55711;DHT22;41612;51.994;5.880;2023-04-08T05:21:01;5.00;86.20
55711;DHT22;41612;51.994;5.880;2023-04-08T05:23:27;5.10;86.10
55711;DHT22;41612;51.994;5.880;2023-04-08T05:25:53;5.10;86.00
55711;DHT22;41612;51.994;5.880;2023-04-08T05:28:19;5.10;86.10
55711;DHT22;41612;51.994;5.880;2023-04-08T05:30:49;5.10;86.00
55711;DHT22;41612;51.994;5.880;2023-04-08T05:33:15;5.10;85.90
55711;DHT22;41612;51.994;5.880;2023-04-08T05:35:41;5.20;85.90
55711;DHT22;41612;51.994;5.880;2023-04-08T05:38:06;5.20;85.80
55711;DHT22;41612;51.994;5.880;2023-04-08T05:40:32;5.20;85.70
55711;DHT22;41612;51.994;5.880;2023-04-08T05:42:58;5.20;85.60
55711;DHT22;41612;51.994;5.880;2023-04-08T05:45:23;5.20;85.50
55711;DHT22;41612;51.994;5.880;2023-04-08T05:47:49;5.20;85.50
55711;DHT22;41612;51.994;5.880;2023-04-08T05:50:15;5.20;85.40
55711;DHT22;41612;51.994;5.880;2023-04-08T05:52:44;5.20;85.40
55711;DHT22;41612;51.994;5.880;2023-04-08T05:55:13;5.20;85.30
55711;DHT22;41612;51.994;5.880;2023-04-08T05:57:40;5.20;85.20
55711;DHT22;41612;51.994;5.880;2023-04-08T06:00:07;5.20;85.10
55711;DHT22;41612;51.994;5.880;2023-04-08T06:02:36;5.30;85.00
55711;DHT22;41612;51.994;5.880;2023-04-08T06:05:03;5.30;84.80
55711;DHT22;41612;51.994;5.880;2023-04-08T06:07:29;5.30;84.70
55711;DHT22;41612;51.994;5.880;2023-04-08T06:09:55;5.30;84.60
55711;DHT22;41612;51.994;5.880;2023-04-08T06:12:21;5.30;84.50
55711;DHT22;41612;51.994;5.880;2023-04-08T06:14:47;5.30;84.50
55711;DHT22;41612;51.994;5.880;2023-04-08T06:17:17;5.40;84.20
55711;DHT22;41612;51.994;5.880;2023-04-08T06:19:43;5.40;84.10
55711;DHT22;41612;51.994;5.880;2023-04-08T06:22:09;5.50;84.10
55711;DHT22;41612;51.994;5.880;2023-04-08T06:24:35;5.50;83.90
55711;DHT22;41612;51.994;5.880;2023-04-08T06:27:00;5.50;83.90
55711;DHT22;41612;51.994;5.880;2023-04-08T06:29:29;5.60;83.70
55711;DHT22;41612;51.994;5.880;2023-04-08T06:31:55;5.60;83.80
55711;DHT22;41612;51.994;5.880;2023-04-08T06:34:21;5.70;83.30
55711;DHT22;41612;51.994;5.880;2023-04-08T06:36:52;5.70;83.20
55711;DHT22;41612;51.994;5.880;2023-04-08T06:39:18;5.80;82.80
55711;DHT22;41612;51.994;5.880;2023-04-08T06:41:48;5.90;82.50
55711;DHT22;41612;51.994;5.880;2023-04-08T06:44:40;6.00;82.20
55711;DHT22;41612;51.994;5.880;2023-04-08T06:47:06;6.10;82.50
55711;DHT22;41612;51.994;5.880;2023-04-08T06:49:31;6.20;82.20
55711;DHT22;41612;51.994;5.880;2023-04-08T06:51:57;6.40;81.60
55711;DHT22;41612;51.994;5.880;2023-04-08T06:54:31;6.50;81.20
55711;DHT22;41612;51.994;5.880;2023-04-08T06:56:57;6.60;81.10
55711;DHT22;41612;51.994;5.880;2023-04-08T06:59:23;6.70;81.10
55711;DHT22;41612;51.994;5.880;2023-04-08T07:01:49;6.90;81.80
55711;DHT22;41612;51.994;5.880;2023-04-08T07:04:15;7.00;82.00
55711;DHT22;41612;51.994;5.880;2023-04-08T07:06:41;7.00;81.40
55711;DHT22;41612;51.994;5.880;2023-04-08T07:09:07;7.10;79.10
55711;DHT22;41612;51.994;5.880;2023-04-08T07:11:33;7.20;79.90
55711;DHT22;41612;51.994;5.880;2023-04-08T07:13:59;7.30;79.10
55711;DHT22;41612;51.994;5.880;2023-04-08T07:16:25;7.30;79.90
55711;DHT22;41612;51.994;5.880;2023-04-08T07:18:50;7.40;81.20
55711;DHT22;41612;51.994;5.880;2023-04-08T07:21:17;7.30;79.90
55711;DHT22;41612;51.994;5.880;2023-04-08T07:23:42;7.40;80.50
55711;DHT22;41612;51.994;5.880;2023-04-08T07:26:08;7.50;78.50
55711;DHT22;41612;51.994;5.880;2023-04-08T07:28:37;7.60;79.70
55711;DHT22;41612;51.994;5.880;2023-04-08T07:31:31;7.60;80.80
55711;DHT22;41612;51.994;5.880;2023-04-08T07:33:58;7.70;77.50
55711;DHT22;41612;51.994;5.880;2023-04-08T07:36:24;7.70;76.80
55711;DHT22;41612;51.994;5.880;2023-04-08T07:38:49;7.80;78.50
55711;DHT22;41612;51.994;5.880;2023-04-08T07:41:16;7.90;78.60
55711;DHT22;41612;51.994;5.880;2023-04-08T07:43:42;8.00;77.30
55711;DHT22;41612;51.994;5.880;2023-04-08T07:46:07;8.00;78.90
55711;DHT22;41612;51.994;5.880;2023-04-08T07:48:34;8.00;77.80
55711;DHT22;41612;51.994;5.880;2023-04-08T07:51:06;8.10;78.50
55711;DHT22;41612;51.994;5.880;2023-04-08T07:53:32;8.20;77.60
55711;DHT22;41612;51.994;5.880;2023-04-08T07:55:59;8.20;75.70
55711;DHT22;41612;51.994;5.880;2023-04-08T07:58:25;8.30;78.00
55711;DHT22;41612;51.994;5.880;2023-04-08T08:00:51;8.30;78.30
55711;DHT22;41612;51.994;5.880;2023-04-08T08:03:17;8.40;76.30
55711;DHT22;41612;51.994;5.880;2023-04-08T08:05:56;8.50;74.70
55711;DHT22;41612;51.994;5.880;2023-04-08T08:08:22;8.60;73.80
55711;DHT22;41612;51.994;5.880;2023-04-08T08:10:50;8.70;73.30
55711;DHT22;41612;51.994;5.880;2023-04-08T08:13:15;8.80;74.10
55711;DHT22;41612;51.994;5.880;2023-04-08T08:15:45;8.80;73.30
55711;DHT22;41612;51.994;5.880;2023-04-08T08:18:11;8.90;72.50
55711;DHT22;41612;51.994;5.880;2023-04-08T08:20:39;8.90;73.40
55711;DHT22;41612;51.994;5.880;2023-04-08T08:23:05;9.00;73.90
55711;DHT22;41612;51.994;5.880;2023-04-08T08:25:31;9.20;72.50
55711;DHT22;41612;51.994;5.880;2023-04-08T08:27:57;9.30;72.70
55711;DHT22;41612;51.994;5.880;2023-04-08T08:30:23;9.30;73.20
55711;DHT22;41612;51.994;5.880;2023-04-08T08:32:51;9.50;72.50
55711;DHT22;41612;51.994;5.880;2023-04-08T08:35:16;9.70;70.60
55711;DHT22;41612;51.994;5.880;2023-04-08T08:37:45;9.70;70.70
55711;DHT22;41612;51.994;5.880;2023-04-08T08:40:14;9.80;69.90
55711;DHT22;41612;51.994;5.880;2023-04-08T08:42:40;9.80;69.50
55711;DHT22;41612;51.994;5.880;2023-04-08T08:45:07;9.90;69.00
55711;DHT22;41612;51.994;5.880;2023-04-08T08:47:33;10.00;69.00
55711;DHT22;41612;51.994;5.880;2023-04-08T08:49:59;10.00;68.50
55711;DHT22;41612;51.994;5.880;2023-04-08T08:52:25;10.10;68.30
55711;DHT22;41612;51.994;5.880;2023-04-08T08:54:57;10.20;68.00
55711;DHT22;41612;51.994;5.880;2023-04-08T08:57:23;10.30;67.50
55711;DHT22;41612;51.994;5.880;2023-04-08T08:59:49;10.40;67.40
55711;DHT22;41612;51.994;5.880;2023-04-08T09:02:28;10.50;67.10
55711;DHT22;41612;51.994;5.880;2023-04-08T09:05:01;10.70;66.30
55711;DHT22;41612;51.994;5.880;2023-04-08T09:07:28;10.80;66.00
55711;DHT22;41612;51.994;5.880;2023-04-08T09:09:56;10.80;65.50
55711;DHT22;41612;51.994;5.880;2023-04-08T09:12:22;11.00;65.40
55711;DHT22;41612;51.994;5.880;2023-04-08T09:14:49;11.20;64.60
55711;DHT22;41612;51.994;5.880;2023-04-08T09:17:15;11.30;63.90
55711;DHT22;41612;51.994;5.880;2023-04-08T09:20:04;11.50;63.90
55711;DHT22;41612;51.994;5.880;2023-04-08T09:22:37;11.80;62.80
55711;DHT22;41612;51.994;5.880;2023-04-08T09:25:30;12.00;61.90
55711;DHT22;41612;51.994;5.880;2023-04-08T09:27:57;12.20;60.90
55711;DHT22;41612;51.994;5.880;2023-04-08T09:30:25;12.50;61.00
55711;DHT22;41612;51.994;5.880;2023-04-08T09:32:57;12.80;61.00
55711;DHT22;41612;51.994;5.880;2023-04-08T09:35:26;13.00;59.40
55711;DHT22;41612;51.994;5.880;2023-04-08T09:37:57;13.10;58.80
55711;DHT22;41612;51.994;5.880;2023-04-08T09:40:26;13.30;58.30
55711;DHT22;41612;51.994;5.880;2023-04-08T09:42:55;13.40;57.90
55711;DHT22;41612;51.994;5.880;2023-04-08T09:45:23;13.60;58.50
55711;DHT22;41612;51.994;5.880;2023-04-08T09:48:10;13.80;59.60
55711;DHT22;41612;51.994;5.880;2023-04-08T09:50:42;14.00;56.80
55711;DHT22;41612;51.994;5.880;2023-04-08T09:53:13;14.10;57.10
55711;DHT22;41612;51.994;5.880;2023-04-08T09:55:49;14.20;57.20
55711;DHT22;41612;51.994;5.880;2023-04-08T09:58:32;14.40;56.60
55711;DHT22;41612;51.994;5.880;2023-04-08T10:00:59;14.40;56.80
55711;DHT22;41612;51.994;5.880;2023-04-08T10:05:52;14.70;54.20
55711;DHT22;41612;51.994;5.880;2023-04-08T10:08:18;14.80;54.40
55711;DHT22;41612;51.994;5.880;2023-04-08T10:10:45;14.90;53.70
55711;DHT22;41612;51.994;5.880;2023-04-08T10:13:12;15.00;52.80
55711;DHT22;41612;51.994;5.880;2023-04-08T10:15:41;15.20;52.40
55711;DHT22;41612;51.994;5.880;2023-04-08T10:20:42;15.20;51.80
55711;DHT22;41612;51.994;5.880;2023-04-08T10:23:13;15.40;51.90
55711;DHT22;41612;51.994;5.880;2023-04-08T10:25:42;15.60;52.80
55711;DHT22;41612;51.994;5.880;2023-04-08T10:30:39;15.80;50.80
55711;DHT22;41612;51.994;5.880;2023-04-08T10:33:16;15.90;50.40
55711;DHT22;41612;51.994;5.880;2023-04-08T10:35:59;16.10;50.10
55711;DHT22;41612;51.994;5.880;2023-04-08T10:38:25;16.50;49.60
55711;DHT22;41612;51.994;5.880;2023-04-08T10:40:53;16.50;49.30
55711;DHT22;41612;51.994;5.880;2023-04-08T10:43:19;16.30;48.70
55711;DHT22;41612;51.994;5.880;2023-04-08T10:45:45;16.10;49.20
55711;DHT22;41612;51.994;5.880;2023-04-08T10:48:16;15.90;48.20
55711;DHT22;41612;51.994;5.880;2023-04-08T10:53:32;16.00;49.20
55711;DHT22;41612;51.994;5.880;2023-04-08T10:56:12;16.00;48.90
55711;DHT22;41612;51.994;5.880;2023-04-08T10:58:52;16.10;48.50
55711;DHT22;41612;51.994;5.880;2023-04-08T11:01:19;16.20;48.40
55711;DHT22;41612;51.994;5.880;2023-04-08T11:03:45;16.20;48.20
55711;DHT22;41612;51.994;5.880;2023-04-08T11:06:11;16.20;48.50
55711;DHT22;41612;51.994;5.880;2023-04-08T11:08:37;16.20;48.40
55711;DHT22;41612;51.994;5.880;2023-04-08T11:11:04;16.20;48.60
55711;DHT22;41612;51.994;5.880;2023-04-08T11:13:35;16.40;49.20
55711;DHT22;41612;51.994;5.880;2023-04-08T11:16:02;16.70;49.20
55711;DHT22;41612;51.994;5.880;2023-04-08T11:18:31;17.00;47.80
55711;DHT22;41612;51.994;5.880;2023-04-08T11:20:59;17.50;47.70
55711;DHT22;41612;51.994;5.880;2023-04-08T11:23:26;18.00;46.30
55711;DHT22;41612;51.994;5.880;2023-04-08T11:25:52;18.10;45.30
55711;DHT22;41612;51.994;5.880;2023-04-08T11:28:19;18.20;44.50
55711;DHT22;41612;51.994;5.880;2023-04-08T11:30:45;18.20;44.60
55711;DHT22;41612;51.994;5.880;2023-04-08T11:33:13;18.20;45.60
55711;DHT22;41612;51.994;5.880;2023-04-08T11:35:43;18.30;44.80
55711;DHT22;41612;51.994;5.880;2023-04-08T11:38:09;18.20;44.70
55711;DHT22;41612;51.994;5.880;2023-04-08T11:40:35;18.10;45.20
55711;DHT22;41612;51.994;5.880;2023-04-08T11:43:09;18.10;44.60
55711;DHT22;41612;51.994;5.880;2023-04-08T11:45:38;18.00;43.70
55711;DHT22;41612;51.994;5.880;2023-04-08T11:48:11;17.70;44.20
55711;DHT22;41612;51.994;5.880;2023-04-08T11:50:38;17.40;44.90
55711;DHT22;41612;51.994;5.880;2023-04-08T11:53:24;17.20;45.60
55711;DHT22;41612;51.994;5.880;2023-04-08T11:55:51;17.00;46.10
55711;DHT22;41612;51.994;5.880;2023-04-08T11:58:17;16.80;46.40
55711;DHT22;41612;51.994;5.880;2023-04-08T12:00:43;16.70;46.90
55711;DHT22;41612;51.994;5.880;2023-04-08T12:03:10;16.50;47.40
55711;DHT22;41612;51.994;5.880;2023-04-08T12:05:37;16.30;47.40
55711;DHT22;41612;51.994;5.880;2023-04-08T12:08:03;16.10;48.40
55711;DHT22;41612;51.994;5.880;2023-04-08T12:10:28;16.20;49.30
55711;DHT22;41612;51.994;5.880;2023-04-08T12:12:54;16.30;48.60
55711;DHT22;41612;51.994;5.880;2023-04-08T12:15:20;16.50;47.50
55711;DHT22;41612;51.994;5.880;2023-04-08T12:17:48;16.50;47.80
55711;DHT22;41612;51.994;5.880;2023-04-08T12:20:14;16.50;48.60
55711;DHT22;41612;51.994;5.880;2023-04-08T12:22:41;16.50;48.20
55711;DHT22;41612;51.994;5.880;2023-04-08T12:25:07;16.80;48.00
55711;DHT22;41612;51.994;5.880;2023-04-08T12:27:35;17.10;48.30
55711;DHT22;41612;51.994;5.880;2023-04-08T12:30:04;18.30;46.60
55711;DHT22;41612;51.994;5.880;2023-04-08T12:32:32;20.40;42.60
55711;DHT22;41612;51.994;5.880;2023-04-08T12:34:59;22.30;38.60
55711;DHT22;41612;51.994;5.880;2023-04-08T12:37:25;23.60;35.40
55711;DHT22;41612;51.994;5.880;2023-04-08T12:39:56;24.10;34.50
55711;DHT22;41612;51.994;5.880;2023-04-08T12:42:25;23.90;34.30
55711;DHT22;41612;51.994;5.880;2023-04-08T12:44:51;24.20;34.50
55711;DHT22;41612;51.994;5.880;2023-04-08T12:47:17;23.90;34.70
55711;DHT22;41612;51.994;5.880;2023-04-08T12:49:48;23.30;31.60
55711;DHT22;41612;51.994;5.880;2023-04-08T12:52:14;22.70;33.80
55711;DHT22;41612;51.994;5.880;2023-04-08T12:54:40;22.00;35.60
55711;DHT22;41612;51.994;5.880;2023-04-08T12:57:05;21.50;38.20
55711;DHT22;41612;51.994;5.880;2023-04-08T12:59:31;21.10;38.10
55711;DHT22;41612;51.994;5.880;2023-04-08T13:01:58;20.80;39.20
55711;DHT22;41612;51.994;5.880;2023-04-08T13:04:24;20.50;39.90
55711;DHT22;41612;51.994;5.880;2023-04-08T13:06:49;20.00;41.30
55711;DHT22;41612;51.994;5.880;2023-04-08T13:09:16;19.60;42.60
55711;DHT22;41612;51.994;5.880;2023-04-08T13:11:42;19.50;42.80
55711;DHT22;41612;51.994;5.880;2023-04-08T13:14:08;19.70;43.80
55711;DHT22;41612;51.994;5.880;2023-04-08T13:16:34;19.90;41.30
55711;DHT22;41612;51.994;5.880;2023-04-08T13:19:00;19.70;42.00
55711;DHT22;41612;51.994;5.880;2023-04-08T13:21:26;19.20;44.00
55711;DHT22;41612;51.994;5.880;2023-04-08T13:23:52;18.70;46.00
55711;DHT22;41612;51.994;5.880;2023-04-08T13:26:17;18.10;46.70
55711;DHT22;41612;51.994;5.880;2023-04-08T13:28:43;17.80;47.10
55711;DHT22;41612;51.994;5.880;2023-04-08T13:31:11;17.60;50.10
55711;DHT22;41612;51.994;5.880;2023-04-08T13:33:39;17.40;50.10
55711;DHT22;41612;51.994;5.880;2023-04-08T13:36:05;17.30;50.40
55711;DHT22;41612;51.994;5.880;2023-04-08T13:38:31;17.20;50.50
55711;DHT22;41612;51.994;5.880;2023-04-08T13:40:57;17.30;52.10
55711;DHT22;41612;51.994;5.880;2023-04-08T13:43:25;17.30;47.30
55711;DHT22;41612;51.994;5.880;2023-04-08T13:45:51;17.80;51.30
55711;DHT22;41612;51.994;5.880;2023-04-08T13:48:20;18.20;50.30
55711;DHT22;41612;51.994;5.880;2023-04-08T13:50:46;18.80;48.50
55711;DHT22;41612;51.994;5.880;2023-04-08T13:53:12;19.40;47.80
55711;DHT22;41612;51.994;5.880;2023-04-08T13:55:37;19.40;46.20
55711;DHT22;41612;51.994;5.880;2023-04-08T13:58:03;19.20;47.70
55711;DHT22;41612;51.994;5.880;2023-04-08T14:00:29;19.00;48.60
55711;DHT22;41612;51.994;5.880;2023-04-08T14:02:56;18.80;49.00
55711;DHT22;41612;51.994;5.880;2023-04-08T14:05:22;18.80;49.50
55711;DHT22;41612;51.994;5.880;2023-04-08T14:07:53;18.60;49.90
55711;DHT22;41612;51.994;5.880;2023-04-08T14:10:19;18.50;50.40
55711;DHT22;41612;51.994;5.880;2023-04-08T14:12:45;18.50;50.20
55711;DHT22;41612;51.994;5.880;2023-04-08T14:15:11;18.40;50.30
55711;DHT22;41612;51.994;5.880;2023-04-08T14:17:36;18.50;45.70
55711;DHT22;41612;51.994;5.880;2023-04-08T14:20:03;18.60;43.50
55711;DHT22;41612;51.994;5.880;2023-04-08T14:22:30;18.50;50.80
55711;DHT22;41612;51.994;5.880;2023-04-08T14:24:56;18.30;49.70
55711;DHT22;41612;51.994;5.880;2023-04-08T14:27:22;18.50;50.60
55711;DHT22;41612;51.994;5.880;2023-04-08T14:29:48;19.10;50.50
55711;DHT22;41612;51.994;5.880;2023-04-08T14:32:13;20.70;46.90
55711;DHT22;41612;51.994;5.880;2023-04-08T14:34:39;22.60;43.30
55711;DHT22;41612;51.994;5.880;2023-04-08T14:37:05;24.70;37.30
55711;DHT22;41612;51.994;5.880;2023-04-08T14:39:31;26.60;34.50
55711;DHT22;41612;51.994;5.880;2023-04-08T14:41:57;27.90;28.00
55711;DHT22;41612;51.994;5.880;2023-04-08T14:44:23;28.60;28.00
55711;DHT22;41612;51.994;5.880;2023-04-08T14:46:49;29.30;30.80
55711;DHT22;41612;51.994;5.880;2023-04-08T14:49:15;29.70;29.90
55711;DHT22;41612;51.994;5.880;2023-04-08T14:51:46;30.20;29.90
55711;DHT22;41612;51.994;5.880;2023-04-08T14:54:13;30.40;29.40
55711;DHT22;41612;51.994;5.880;2023-04-08T14:56:41;30.70;28.60
55711;DHT22;41612;51.994;5.880;2023-04-08T14:59:06;31.00;28.00
55711;DHT22;41612;51.994;5.880;2023-04-08T15:01:35;31.20;26.30
55711;DHT22;41612;51.994;5.880;2023-04-08T15:04:01;31.30;27.30
55711;DHT22;41612;51.994;5.880;2023-04-08T15:06:27;31.40;25.40
55711;DHT22;41612;51.994;5.880;2023-04-08T15:08:53;31.40;26.10
55711;DHT22;41612;51.994;5.880;2023-04-08T15:11:19;31.30;27.40
55711;DHT22;41612;51.994;5.880;2023-04-08T15:13:47;31.30;26.50
55711;DHT22;41612;51.994;5.880;2023-04-08T15:16:12;31.20;26.40
55711;DHT22;41612;51.994;5.880;2023-04-08T15:18:41;31.20;27.00
55711;DHT22;41612;51.994;5.880;2023-04-08T15:21:07;31.30;27.20
55711;DHT22;41612;51.994;5.880;2023-04-08T15:23:33;31.30;26.00
55711;DHT22;41612;51.994;5.880;2023-04-08T15:25:59;31.20;28.40
55711;DHT22;41612;51.994;5.880;2023-04-08T15:28:25;31.10;28.80
55711;DHT22;41612;51.994;5.880;2023-04-08T15:30:51;31.20;28.60
55711;DHT22;41612;51.994;5.880;2023-04-08T15:33:18;31.10;28.80
55711;DHT22;41612;51.994;5.880;2023-04-08T15:35:45;30.80;28.30
55711;DHT22;41612;51.994;5.880;2023-04-08T15:38:12;29.90;29.50
55711;DHT22;41612;51.994;5.880;2023-04-08T15:40:37;29.20;30.90
55711;DHT22;41612;51.994;5.880;2023-04-08T15:43:03;28.50;31.50
55711;DHT22;41612;51.994;5.880;2023-04-08T15:45:29;27.10;32.60
55711;DHT22;41612;51.994;5.880;2023-04-08T15:47:56;25.60;35.10
55711;DHT22;41612;51.994;5.880;2023-04-08T15:50:21;24.40;38.00
55711;DHT22;41612;51.994;5.880;2023-04-08T15:52:47;24.20;37.70
55711;DHT22;41612;51.994;5.880;2023-04-08T15:55:13;23.60;39.10
55711;DHT22;41612;51.994;5.880;2023-04-08T15:57:39;23.00;38.60
55711;DHT22;41612;51.994;5.880;2023-04-08T16:00:09;22.70;40.90
55711;DHT22;41612;51.994;5.880;2023-04-08T16:02:37;22.20;39.40
55711;DHT22;41612;51.994;5.880;2023-04-08T16:05:04;21.60;44.50
55711;DHT22;41612;51.994;5.880;2023-04-08T16:07:30;20.90;44.40
55711;DHT22;41612;51.994;5.880;2023-04-08T16:09:56;20.30;47.10
55711;DHT22;41612;51.994;5.880;2023-04-08T16:12:24;19.80;45.00
55711;DHT22;41612;51.994;5.880;2023-04-08T16:14:50;19.40;50.90
55711;DHT22;41612;51.994;5.880;2023-04-08T16:17:15;19.20;51.90
55711;DHT22;41612;51.994;5.880;2023-04-08T16:19:41;19.00;52.50
55711;DHT22;41612;51.994;5.880;2023-04-08T16:22:07;18.70;53.60
55711;DHT22;41612;51.994;5.880;2023-04-08T16:24:36;18.50;53.60
55711;DHT22;41612;51.994;5.880;2023-04-08T16:27:02;18.20;54.10
55711;DHT22;41612;51.994;5.880;2023-04-08T16:29:31;18.10;55.40
55711;DHT22;41612;51.994;5.880;2023-04-08T16:31:57;17.90;56.20
55711;DHT22;41612;51.994;5.880;2023-04-08T16:34:23;17.70;56.40
55711;DHT22;41612;51.994;5.880;2023-04-08T16:36:48;17.50;57.60
55711;DHT22;41612;51.994;5.880;2023-04-08T16:39:14;17.40;56.90
55711;DHT22;41612;51.994;5.880;2023-04-08T16:41:40;17.20;57.70
55711;DHT22;41612;51.994;5.880;2023-04-08T16:44:06;17.00;57.30
55711;DHT22;41612;51.994;5.880;2023-04-08T16:46:32;16.90;56.70
55711;DHT22;41612;51.994;5.880;2023-04-08T16:48:57;16.80;55.20
55711;DHT22;41612;51.994;5.880;2023-04-08T16:51:23;16.70;57.80
55711;DHT22;41612;51.994;5.880;2023-04-08T16:53:49;16.50;56.60
55711;DHT22;41612;51.994;5.880;2023-04-08T16:56:15;16.50;57.50
55711;DHT22;41612;51.994;5.880;2023-04-08T16:58:42;16.40;61.10
55711;DHT22;41612;51.994;5.880;2023-04-08T17:01:08;16.30;61.80
55711;DHT22;41612;51.994;5.880;2023-04-08T17:03:35;16.20;61.00
55711;DHT22;41612;51.994;5.880;2023-04-08T17:06:07;16.20;62.20
55711;DHT22;41612;51.994;5.880;2023-04-08T17:08:33;16.20;62.30
55711;DHT22;41612;51.994;5.880;2023-04-08T17:11:10;16.10;60.60
55711;DHT22;41612;51.994;5.880;2023-04-08T17:13:38;16.10;62.10
55711;DHT22;41612;51.994;5.880;2023-04-08T17:16:04;16.00;62.10
55711;DHT22;41612;51.994;5.880;2023-04-08T17:18:33;15.90;62.40
55711;DHT22;41612;51.994;5.880;2023-04-08T17:20:59;15.90;61.50
55711;DHT22;41612;51.994;5.880;2023-04-08T17:23:25;15.90;63.70
55711;DHT22;41612;51.994;5.880;2023-04-08T17:25:51;15.80;62.70
55711;DHT22;41612;51.994;5.880;2023-04-08T17:28:18;15.70;61.70
55711;DHT22;41612;51.994;5.880;2023-04-08T17:30:45;15.70;63.80
55711;DHT22;41612;51.994;5.880;2023-04-08T17:33:12;15.70;64.20
55711;DHT22;41612;51.994;5.880;2023-04-08T17:35:38;15.60;64.80
55711;DHT22;41612;51.994;5.880;2023-04-08T17:38:09;15.60;64.80
55711;DHT22;41612;51.994;5.880;2023-04-08T17:44:23;15.50;64.80
55711;DHT22;41612;51.994;5.880;2023-04-08T17:50:27;15.30;65.80
55711;DHT22;41612;51.994;5.880;2023-04-08T17:53:08;15.30;65.70
55711;DHT22;41612;51.994;5.880;2023-04-08T17:59:25;15.20;65.30
55711;DHT22;41612;51.994;5.880;2023-04-08T18:01:55;15.10;65.80
55711;DHT22;41612;51.994;5.880;2023-04-08T18:04:32;15.00;66.60
55711;DHT22;41612;51.994;5.880;2023-04-08T18:07:07;15.00;66.90
55711;DHT22;41612;51.994;5.880;2023-04-08T18:09:35;15.00;67.30
55711;DHT22;41612;51.994;5.880;2023-04-08T18:12:04;15.00;67.30
55711;DHT22;41612;51.994;5.880;2023-04-08T18:14:41;14.90;67.50
55711;DHT22;41612;51.994;5.880;2023-04-08T18:17:38;14.90;66.90
55711;DHT22;41612;51.994;5.880;2023-04-08T18:20:27;14.80;67.40
55711;DHT22;41612;51.994;5.880;2023-04-08T18:22:56;14.70;67.70
55711;DHT22;41612;51.994;5.880;2023-04-08T18:25:43;14.70;68.40
55711;DHT22;41612;51.994;5.880;2023-04-08T18:28:23;14.60;68.10
55711;DHT22;41612;51.994;5.880;2023-04-08T18:30:51;14.60;68.30